createdAt,value
2022-11-05T00:00:39.032Z,96.68
2022-11-05T00:04:03.012Z,96.72
2022-11-05T00:07:42.884Z,96.66
2022-11-05T00:10:46.278Z,96.71
2022-11-05T00:14:08.217Z,96.61
2022-11-05T00:17:11.136Z,96.60
2022-11-05T00:20:14.580Z,96.59
2022-11-05T00:23:36.241Z,96.64
2022-11-05T00:26:39.047Z,96.71
2022-11-05T00:29:42.176Z,96.76
2022-11-05T00:32:48.886Z,96.73
2022-11-05T00:35:51.874Z,96.67
2022-11-05T00:38:54.621Z,96.55
2022-11-05T00:42:16.888Z,96.51
2022-11-05T00:45:20.761Z,96.28
2022-11-05T00:48:43.601Z,96.40
2022-11-05T00:51:46.536Z,96.48
2022-11-05T00:54:50.018Z,96.50
2022-11-05T00:57:52.736Z,96.44
2022-11-05T01:00:57.711Z,96.35
2022-11-05T01:04:00.324Z,96.37
2022-11-05T01:07:03.399Z,96.43
2022-11-05T01:10:06.563Z,96.39
2022-11-05T01:13:13.233Z,96.56
2022-11-05T01:16:16.162Z,96.61
2022-11-05T01:19:19.204Z,96.84
2022-11-05T01:22:22.406Z,97.08
2022-11-05T01:25:25.979Z,97.15
2022-11-05T01:28:28.454Z,97.07
2022-11-05T01:31:33.191Z,97.00
2022-11-05T01:34:36.024Z,96.88
2022-11-05T01:37:39.935Z,96.87
2022-11-05T01:40:43.265Z,96.61
2022-11-05T01:43:57.562Z,96.27
2022-11-05T01:47:00.245Z,96.17
2022-11-05T01:50:21.737Z,95.99
2022-11-05T01:53:48.423Z,96.07
2022-11-05T01:57:02.052Z,96.14
2022-11-05T02:00:05.512Z,96.12
2022-11-05T02:03:17.323Z,95.98
2022-11-05T02:06:21.598Z,95.96
2022-11-05T02:09:29.904Z,95.99
2022-11-05T02:12:34.661Z,95.97
2022-11-05T02:15:51.858Z,95.94
2022-11-05T02:19:25.182Z,96.00
2022-11-05T02:22:40.465Z,95.79
2022-11-05T02:25:55.178Z,95.61
2022-11-05T02:29:03.758Z,95.92
2022-11-05T02:32:18.802Z,95.86
2022-11-05T02:35:54.927Z,95.72
2022-11-05T02:39:23.266Z,95.77
2022-11-05T02:42:47.293Z,95.94
2022-11-05T02:46:17.877Z,95.80
2022-11-05T02:49:42.298Z,95.92
2022-11-05T02:52:48.251Z,96.12
2022-11-05T02:56:04.545Z,96.06
2022-11-05T02:59:08.444Z,96.21
2022-11-05T03:02:11.769Z,96.21
2022-11-05T03:05:16.110Z,96.24
2022-11-05T03:08:36.786Z,96.04
2022-11-05T03:12:04.173Z,95.94
2022-11-05T03:15:38.078Z,96.00
2022-11-05T03:18:51.814Z,95.90
2022-11-05T03:22:01.087Z,95.80
2022-11-05T03:25:10.902Z,95.79
2022-11-05T03:28:15.085Z,95.90
2022-11-05T03:31:21.128Z,95.80
2022-11-05T03:34:30.198Z,95.59
2022-11-05T03:37:37.496Z,95.65
2022-11-05T03:40:42.714Z,95.74
2022-11-05T03:43:49.549Z,95.69
2022-11-05T03:46:57.501Z,95.68
2022-11-05T03:50:41.433Z,95.71
2022-11-05T03:53:50.104Z,95.83
2022-11-05T03:57:08.868Z,95.80
2022-11-05T04:00:14.600Z,95.81
2022-11-05T04:03:19.521Z,95.76
2022-11-05T04:06:41.822Z,95.90
2022-11-05T04:10:03.876Z,95.78
2022-11-05T04:13:24.977Z,95.74
2022-11-05T04:16:46.718Z,95.89
2022-11-05T04:20:08.074Z,95.75
2022-11-05T04:23:30.311Z,95.63
2022-11-05T04:26:33.096Z,95.64
2022-11-05T04:29:54.992Z,95.64
2022-11-05T04:33:03.078Z,95.58
2022-11-05T04:36:06.446Z,95.60
2022-11-05T04:39:10.952Z,95.41
2022-11-05T04:42:13.893Z,95.34
2022-11-05T04:45:16.910Z,95.32
2022-11-05T04:48:20.173Z,95.31
2022-11-05T04:51:23.454Z,95.23
2022-11-05T04:54:28.512Z,95.20
2022-11-05T04:57:31.258Z,95.25
2022-11-05T05:00:36.925Z,95.17
2022-11-05T05:03:40.949Z,95.18
2022-11-05T05:06:44.114Z,95.10
2022-11-05T05:09:54.936Z,95.08
2022-11-05T05:12:58.646Z,95.07
2022-11-05T05:16:08.685Z,94.98
2022-11-05T05:19:13.043Z,94.97
2022-11-05T05:22:15.689Z,95.20
2022-11-05T05:25:26.376Z,95.16
2022-11-05T05:28:29.956Z,95.05
2022-11-05T05:31:33.475Z,95.21
2022-11-05T05:34:37.021Z,95.08
2022-11-05T05:37:44.440Z,95.07
2022-11-05T05:40:47.520Z,94.91
2022-11-05T05:43:50.886Z,94.78
2022-11-05T05:46:55.656Z,94.71
2022-11-05T05:50:00.055Z,94.58
2022-11-05T05:53:03.405Z,94.46
2022-11-05T05:56:08.034Z,94.48
2022-11-05T05:59:14.942Z,94.48
2022-11-05T06:02:18.790Z,94.28
2022-11-05T06:05:24.059Z,94.20
2022-11-05T06:08:35.133Z,94.23
2022-11-05T06:11:41.934Z,94.25
2022-11-05T06:14:45.936Z,93.95
2022-11-05T06:17:51.004Z,93.89
2022-11-05T06:21:07.925Z,93.86
2022-11-05T06:24:13.964Z,93.73
2022-11-05T06:27:19.954Z,93.58
2022-11-05T06:30:26.053Z,93.79
2022-11-05T06:33:31.928Z,93.76
2022-11-05T06:36:42.083Z,93.66
2022-11-05T06:39:46.814Z,93.41
2022-11-05T06:42:52.961Z,93.39
2022-11-05T06:45:58.217Z,93.32
2022-11-05T06:49:04.144Z,93.13
2022-11-05T06:52:08.927Z,93.08
2022-11-05T06:55:13.150Z,92.96
2022-11-05T06:58:21.106Z,92.95
2022-11-05T07:01:24.453Z,93.07
2022-11-05T07:04:28.858Z,92.94
2022-11-05T07:07:38.173Z,92.64
2022-11-05T07:10:41.999Z,92.75
2022-11-05T07:13:53.877Z,92.53
2022-11-05T07:16:58.298Z,92.22
2022-11-05T07:20:10.938Z,92.29
2022-11-05T07:23:20.331Z,91.60
2022-11-05T07:26:33.390Z,91.69
2022-11-05T07:29:39.170Z,91.59
2022-11-05T07:32:46.918Z,91.27
2022-11-05T07:35:54.948Z,91.33
2022-11-05T07:39:01.012Z,90.73
2022-11-05T07:42:05.056Z,90.29
2022-11-05T07:45:16.149Z,90.55
2022-11-05T07:48:20.893Z,90.42
2022-11-05T07:51:28.140Z,90.59
2022-11-05T07:54:41.032Z,89.94
2022-11-05T07:57:59.991Z,89.64
2022-11-05T08:01:21.485Z,89.48
2022-11-05T08:04:31.373Z,89.01
2022-11-05T08:07:36.855Z,88.69
2022-11-05T08:10:42.255Z,88.73
2022-11-05T08:13:57.961Z,88.41
2022-11-05T08:17:04.270Z,88.20
2022-11-05T08:20:17.013Z,87.86
2022-11-05T08:23:29.864Z,87.55
2022-11-05T08:26:33.983Z,87.39
2022-11-05T08:29:37.549Z,86.88
2022-11-05T08:32:42.107Z,86.75
2022-11-05T08:35:51.252Z,85.99
2022-11-05T08:38:54.712Z,86.12
2022-11-05T08:42:02.920Z,86.21
2022-11-05T08:45:09.998Z,86.33
2022-11-05T08:48:21.147Z,85.92
2022-11-05T08:51:27.967Z,86.27
2022-11-05T08:54:32.304Z,86.21
2022-11-05T08:57:36.715Z,86.56
2022-11-05T09:00:50.189Z,86.57
2022-11-05T09:03:53.864Z,86.29
2022-11-05T09:06:59.338Z,86.32
2022-11-05T09:10:02.242Z,86.51
2022-11-05T09:13:05.936Z,86.60
2022-11-05T09:16:19.966Z,86.08
2022-11-05T09:19:23.286Z,86.00
2022-11-05T09:22:27.890Z,85.89
2022-11-05T09:25:33.888Z,85.66
2022-11-05T09:28:42.290Z,85.80
2022-11-05T09:31:52.417Z,85.18
2022-11-05T09:34:55.155Z,85.27
2022-11-05T09:38:02.958Z,84.82
2022-11-05T09:41:13.045Z,85.20
2022-11-05T09:44:32.005Z,84.58
2022-11-05T09:47:58.367Z,84.26
2022-11-05T09:51:06.282Z,84.54
2022-11-05T09:54:13.257Z,84.48
2022-11-05T09:57:48.432Z,83.64
2022-11-05T10:00:57.231Z,83.89
2022-11-05T10:04:14.959Z,83.51
2022-11-05T10:07:23.893Z,82.95
2022-11-05T10:10:41.484Z,82.45
2022-11-05T10:13:59.455Z,82.29
2022-11-05T10:17:22.946Z,82.07
2022-11-05T10:20:38.416Z,82.21
2022-11-05T10:23:44.711Z,81.99
2022-11-05T10:27:00.337Z,81.03
2022-11-05T10:30:06.201Z,81.06
2022-11-05T10:33:16.911Z,80.90
2022-11-05T10:36:35.150Z,80.49
2022-11-05T10:39:38.178Z,80.60
2022-11-05T10:43:02.212Z,80.41
2022-11-05T10:46:32.589Z,79.93
2022-11-05T10:49:59.259Z,79.42
2022-11-05T10:53:17.922Z,78.96
2022-11-05T10:56:39.940Z,79.07
2022-11-05T10:59:44.506Z,78.50
2022-11-05T11:02:57.812Z,78.11
2022-11-05T11:06:26.038Z,78.19
2022-11-05T11:09:37.982Z,78.80
2022-11-05T11:12:43.712Z,78.15
2022-11-05T11:15:58.856Z,78.26
2022-11-05T11:19:27.143Z,78.43
2022-11-05T11:22:32.920Z,77.70
2022-11-05T11:25:48.203Z,76.85
2022-11-05T11:29:12.529Z,76.82
2022-11-05T11:32:24.999Z,77.05
2022-11-05T11:35:30.778Z,77.50
2022-11-05T11:38:36.785Z,77.00
2022-11-05T11:41:44.831Z,77.62
2022-11-05T11:44:52.093Z,77.31
2022-11-05T11:47:58.015Z,77.69
2022-11-05T11:51:20.516Z,77.82
2022-11-05T11:54:28.951Z,77.91
2022-11-05T11:57:32.022Z,77.88
2022-11-05T12:00:46.034Z,77.83
2022-11-05T12:04:07.013Z,78.37
2022-11-05T12:07:48.873Z,78.70
2022-11-05T12:11:14.932Z,78.79
2022-11-05T12:14:50.123Z,78.20
2022-11-05T12:18:06.888Z,78.80
2022-11-05T12:21:50.853Z,78.83
2022-11-05T12:25:05.809Z,78.92
2022-11-05T12:29:12.241Z,78.89
2022-11-05T12:32:44.021Z,79.27
2022-11-05T12:36:21.954Z,79.73
2022-11-05T12:39:33.123Z,79.53
2022-11-05T12:43:02.884Z,79.42
2022-11-05T12:46:18.241Z,79.43
2022-11-05T12:49:42.121Z,79.51
2022-11-05T12:53:23.001Z,79.94
2022-11-05T12:56:58.875Z,79.74
2022-11-05T13:00:08.978Z,79.88
2022-11-05T13:03:50.828Z,80.37
2022-11-05T13:06:56.167Z,80.36
2022-11-05T13:10:24.905Z,80.46
2022-11-05T13:13:43.868Z,80.89
2022-11-05T13:16:52.880Z,80.97
2022-11-05T13:20:05.779Z,80.80
2022-11-05T13:23:18.667Z,80.63
2022-11-05T13:26:36.243Z,81.08
2022-11-05T13:30:12.864Z,80.63
2022-11-05T13:33:41.869Z,80.99
2022-11-05T13:37:28.641Z,81.18
2022-11-05T13:41:11.902Z,81.45
2022-11-05T13:44:36.065Z,81.18
2022-11-05T13:48:05.892Z,81.22
2022-11-05T13:51:48.071Z,81.20
2022-11-05T13:55:24.922Z,80.97
2022-11-05T13:59:04.073Z,81.11
2022-11-05T14:02:21.072Z,80.90
2022-11-05T14:05:28.412Z,81.00
2022-11-05T14:08:43.883Z,81.11
2022-11-05T14:11:53.277Z,81.04
2022-11-05T14:15:05.322Z,80.89
2022-11-05T14:18:25.073Z,80.86
2022-11-05T14:21:28.417Z,80.74
2022-11-05T14:24:44.810Z,80.69
2022-11-05T14:27:52.840Z,80.87
2022-11-05T14:30:58.946Z,81.01
2022-11-05T14:34:24.232Z,81.02
2022-11-05T14:37:33.127Z,81.11
2022-11-05T14:40:39.074Z,81.01
2022-11-05T14:44:08.077Z,80.78
2022-11-05T14:47:21.924Z,81.13
2022-11-05T14:50:38.154Z,80.98
2022-11-05T14:53:48.090Z,81.31
2022-11-05T14:57:04.923Z,81.63
2022-11-05T15:00:45.788Z,81.54
2022-11-05T15:04:29.927Z,81.80
2022-11-05T15:07:37.513Z,81.76
2022-11-05T15:10:44.086Z,81.59
2022-11-05T15:13:58.090Z,81.74
2022-11-05T15:17:16.496Z,81.78
2022-11-05T15:20:43.629Z,81.73
2022-11-05T15:24:00.035Z,81.82
2022-11-05T15:27:09.852Z,81.84
2022-11-05T15:30:21.955Z,82.02
2022-11-05T15:33:26.979Z,82.16
2022-11-05T15:36:39.825Z,82.14
2022-11-05T15:39:54.867Z,82.24
2022-11-05T15:43:19.886Z,82.21
2022-11-05T15:46:30.057Z,81.98
2022-11-05T15:49:43.904Z,82.29
2022-11-05T15:53:04.818Z,82.06
2022-11-05T15:56:36.888Z,82.22
2022-11-05T15:59:47.637Z,82.09
2022-11-05T16:02:53.728Z,81.84
2022-11-05T16:06:00.819Z,82.09
2022-11-05T16:09:05.974Z,81.98
2022-11-05T16:12:21.908Z,82.00
2022-11-05T16:15:35.888Z,82.41
2022-11-05T16:18:40.140Z,82.53
2022-11-05T16:21:55.056Z,82.80
2022-11-05T16:25:26.870Z,83.09
2022-11-05T16:28:37.517Z,83.68
2022-11-05T16:31:51.136Z,84.23
2022-11-05T16:35:09.816Z,84.38
2022-11-05T16:38:17.103Z,84.91
2022-11-05T16:41:22.208Z,85.35
2022-11-05T16:44:36.053Z,85.66
2022-11-05T16:47:40.231Z,86.38
2022-11-05T16:50:57.149Z,86.82
2022-11-05T16:54:20.306Z,87.31
2022-11-05T16:57:55.470Z,87.73
2022-11-05T17:01:33.139Z,87.97
2022-11-05T17:05:08.505Z,88.16
2022-11-05T17:08:41.701Z,88.98
2022-11-05T17:12:06.265Z,89.17
2022-11-05T17:15:37.250Z,89.74
2022-11-05T17:18:53.234Z,90.01
2022-11-05T17:22:10.915Z,90.52
2022-11-05T17:25:23.254Z,90.62
2022-11-05T17:28:35.265Z,90.87
2022-11-05T17:31:45.820Z,91.39
2022-11-05T17:34:54.903Z,91.51
2022-11-05T17:38:04.043Z,91.71
2022-11-05T17:41:16.139Z,92.18
2022-11-05T17:44:27.320Z,92.11
2022-11-05T17:47:32.392Z,92.32
2022-11-05T17:50:48.601Z,92.66
2022-11-05T17:53:54.920Z,92.68
2022-11-05T17:56:59.104Z,93.09
2022-11-05T18:00:05.898Z,93.26
2022-11-05T18:03:21.840Z,93.46
2022-11-05T18:06:39.808Z,93.60
2022-11-05T18:09:48.848Z,93.65
2022-11-05T18:12:52.462Z,94.07
2022-11-05T18:15:59.054Z,94.09
2022-11-05T18:19:11.819Z,94.20
2022-11-05T18:22:19.922Z,94.53
2022-11-05T18:25:27.847Z,94.75
2022-11-05T18:28:32.824Z,94.96
2022-11-05T18:31:44.284Z,95.49
2022-11-05T18:34:50.086Z,95.52
2022-11-05T18:37:57.504Z,95.36
2022-11-05T18:41:08.914Z,95.34
2022-11-05T18:44:14.973Z,95.27
2022-11-05T18:47:20.103Z,95.43
2022-11-05T18:50:31.884Z,95.49
2022-11-05T18:53:40.889Z,95.32
2022-11-05T18:56:46.179Z,95.38
2022-11-05T18:59:56.954Z,95.11
2022-11-05T19:03:02.892Z,95.61
2022-11-05T19:06:21.818Z,95.47
2022-11-05T19:09:32.985Z,95.54
2022-11-05T19:12:44.150Z,95.44
2022-11-05T19:15:49.592Z,95.67
2022-11-05T19:18:59.390Z,95.58
2022-11-05T19:22:22.564Z,95.74
2022-11-05T19:25:35.111Z,95.86
2022-11-05T19:28:48.970Z,95.99
2022-11-05T19:31:53.677Z,95.99
2022-11-05T19:34:58.906Z,95.88
2022-11-05T19:38:02.766Z,95.97
2022-11-05T19:41:10.927Z,95.99
2022-11-05T19:44:18.074Z,95.90
2022-11-05T19:47:25.335Z,96.00
2022-11-05T19:50:33.565Z,96.17
2022-11-05T19:53:52.878Z,96.06
2022-11-05T19:57:02.456Z,96.08
2022-11-05T20:00:17.816Z,96.28
2022-11-05T20:03:24.102Z,96.54
2022-11-05T20:06:36.198Z,96.43
2022-11-05T20:09:44.188Z,96.64
2022-11-05T20:12:52.084Z,96.49
2022-11-05T20:15:56.868Z,96.56
2022-11-05T20:19:14.774Z,96.59
2022-11-05T20:22:21.055Z,96.69
2022-11-05T20:25:25.118Z,96.71
2022-11-05T20:28:40.987Z,96.72
2022-11-05T20:31:46.971Z,97.04
2022-11-05T20:35:00.850Z,97.02
2022-11-05T20:38:10.613Z,96.99
2022-11-05T20:41:17.015Z,97.06
2022-11-05T20:44:21.900Z,97.05
2022-11-05T20:47:31.168Z,97.13
2022-11-05T20:50:42.879Z,97.17
2022-11-05T20:54:04.896Z,97.18
2022-11-05T20:57:10.297Z,97.17
2022-11-05T21:00:21.015Z,97.12
2022-11-05T21:03:31.576Z,97.22
2022-11-05T21:06:35.958Z,97.25
2022-11-05T21:09:40.511Z,97.26
2022-11-05T21:12:45.060Z,97.22
2022-11-05T21:15:59.392Z,97.33
2022-11-05T21:19:03.212Z,97.22
2022-11-05T21:22:13.813Z,97.18
2022-11-05T21:25:17.607Z,97.10
2022-11-05T21:28:21.628Z,97.25
2022-11-05T21:31:32.911Z,97.26
2022-11-05T21:34:38.103Z,97.26
2022-11-05T21:37:46.591Z,97.09
2022-11-05T21:40:52.859Z,97.00
2022-11-05T21:44:04.264Z,97.14
2022-11-05T21:47:14.927Z,97.20
2022-11-05T21:50:41.229Z,97.18
2022-11-05T21:54:05.874Z,97.27
2022-11-05T21:57:36.907Z,97.23
2022-11-05T22:00:40.539Z,97.30
2022-11-05T22:03:45.367Z,97.37
2022-11-05T22:06:54.396Z,97.33
2022-11-05T22:09:57.713Z,97.31
2022-11-05T22:13:01.190Z,97.32
2022-11-05T22:16:06.015Z,97.39
2022-11-05T22:19:13.653Z,97.38
2022-11-05T22:22:21.873Z,97.48
2022-11-05T22:25:31.823Z,97.58
2022-11-05T22:28:35.590Z,97.63
2022-11-05T22:31:39.994Z,97.58
2022-11-05T22:34:43.410Z,97.65
2022-11-05T22:37:53.219Z,97.60
2022-11-05T22:40:58.502Z,97.53
2022-11-05T22:44:04.737Z,97.60
2022-11-05T22:47:11.485Z,97.51
2022-11-05T22:50:15.125Z,97.52
2022-11-05T22:53:18.072Z,97.54
2022-11-05T22:56:23.956Z,97.63
2022-11-05T22:59:31.048Z,97.60
2022-11-05T23:02:35.172Z,97.65
2022-11-05T23:05:42.746Z,97.73
2022-11-05T23:09:05.019Z,97.79
2022-11-05T23:12:19.050Z,97.85
2022-11-05T23:15:41.942Z,97.97
2022-11-05T23:19:04.729Z,98.10
2022-11-05T23:22:35.625Z,98.18
2022-11-05T23:25:38.793Z,98.19
2022-11-05T23:28:42.139Z,98.22
2022-11-05T23:32:04.589Z,98.19
2022-11-05T23:35:07.791Z,98.14
2022-11-05T23:38:30.512Z,98.06
2022-11-05T23:41:52.092Z,98.18
2022-11-05T23:45:15.052Z,98.17
2022-11-05T23:48:27.018Z,98.10
2022-11-05T23:51:30.010Z,98.17
2022-11-05T23:54:32.897Z,98.07
2022-11-05T23:57:36.932Z,98.06
